Time;durP1;ratioP1;P1;durP2;ratioP2;P2;SDS_P1;SDS_P2;PMS_P1;PMS_P2;Temp;Humidity;BMP_temperature;BMP_pressure;BME280_temperature;BME280_humidity;BME280_pressure;Samples;Min_cycle;Max_cycle;Signal;HPM_P1;HPM_P2
2021/09/21 00:00:17;;;;;;;3.87;2.65;;;;;;;7.89;83.92;99203.91;1716243;82;21919;-73
2021/09/21 00:02:43;;;;;;;2.37;2.10;;;;;;;7.85;83.69;99207.00;1714385;82;21502;-71
2021/09/21 00:05:10;;;;;;;2.30;2.10;;;;;;;7.78;83.58;99208.80;1741872;82;21022;-71
2021/09/21 00:07:39;;;;;;;2.62;2.20;;;;;;;7.75;83.57;99214.91;1741118;82;20991;-72
2021/09/21 00:10:07;;;;;;;2.45;2.20;;;;;;;7.71;83.33;99212.55;1741926;80;21482;-70
2021/09/21 00:12:36;;;;;;;6.05;2.75;;;;;;;7.71;83.50;99209.22;1741588;82;21456;-72
2021/09/21 00:15:09;;;;;;;2.60;2.40;;;;;;;7.69;83.34;99213.41;1739309;82;21436;-72
2021/09/21 00:17:36;;;;;;;5.05;2.15;;;;;;;7.69;83.61;99218.89;1741830;82;20999;-72
2021/09/21 00:20:15;;;;;;;3.80;2.35;;;;;;;7.74;83.64;99214.12;1741669;82;21038;-71
2021/09/21 00:22:44;;;;;;;2.42;2.20;;;;;;;7.71;82.98;99214.70;1741052;82;20970;-72
2021/09/21 00:25:14;;;;;;;3.10;2.67;;;;;;;7.65;83.15;99216.77;1741572;82;20983;-72
2021/09/21 00:27:42;;;;;;;4.45;2.50;;;;;;;7.68;83.60;99213.95;1738105;82;20982;-71
2021/09/21 00:30:10;;;;;;;3.90;3.02;;;;;;;7.74;83.64;99213.30;1714883;82;21018;-70
2021/09/21 00:32:41;;;;;;;3.95;2.52;;;;;;;7.76;83.37;99212.44;1741425;82;21026;-73
2021/09/21 00:35:09;;;;;;;2.47;2.22;;;;;;;7.75;83.19;99218.47;1739842;82;20999;-72
2021/09/21 00:37:38;;;;;;;3.67;2.60;;;;;;;7.73;83.14;99217.96;1741015;82;21486;-72
2021/09/21 00:40:08;;;;;;;3.08;2.22;;;;;;;7.73;83.01;99222.08;1741805;82;20976;-71
2021/09/21 00:42:37;;;;;;;3.05;2.15;;;;;;;7.69;82.84;99218.89;1691017;82;21498;-72
2021/09/21 00:45:07;;;;;;;6.12;2.52;;;;;;;7.65;82.81;99217.32;1739512;82;21478;-71
2021/09/21 00:47:38;;;;;;;2.65;2.33;;;;;;;7.66;83.00;99217.56;1742183;82;21066;-73
2021/09/21 00:50:07;;;;;;;4.42;2.67;;;;;;;7.70;82.89;99219.13;1741814;82;21149;-72
2021/09/21 00:52:37;;;;;;;2.55;2.22;;;;;;;7.72;82.97;99216.34;1740395;82;21058;-70
2021/09/21 00:55:06;;;;;;;2.92;2.08;;;;;;;7.77;83.16;99226.39;1740893;82;21006;-70
2021/09/21 00:57:34;;;;;;;4.55;3.05;;;;;;;7.86;83.18;99223.18;1738091;82;21034;-70
2021/09/21 01:00:04;;;;;;;2.83;2.50;;;;;;;7.93;83.05;99225.50;1741535;82;21030;-70
2021/09/21 01:02:30;;;;;;;6.03;1.80;;;;;;;7.96;82.79;99226.25;1740688;82;21779;-71
2021/09/21 01:04:58;;;;;;;3.67;2.02;;;;;;;7.94;82.38;99225.73;1740668;82;21074;-71
2021/09/21 01:07:28;;;;;;;5.28;2.62;;;;;;;7.93;82.49;99228.24;1737971;81;21049;-71
2021/09/21 01:10:05;;;;;;;5.55;2.75;;;;;;;7.91;82.25;99225.81;1742437;80;21050;-71
2021/09/21 01:12:35;;;;;;;5.12;2.42;;;;;;;7.87;81.97;99224.79;1747588;82;21077;-71
2021/09/21 01:15:05;;;;;;;3.40;2.50;;;;;;;7.84;82.02;99229.53;1743893;82;21129;-70
2021/09/21 01:17:34;;;;;;;4.05;2.47;;;;;;;7.84;81.98;99235.56;1747258;82;21076;-71
2021/09/21 01:20:11;;;;;;;3.75;2.77;;;;;;;7.85;82.10;99236.63;1750327;80;21510;-70
2021/09/21 01:22:40;;;;;;;2.55;2.35;;;;;;;7.87;82.12;99228.91;1743131;81;21336;-70
2021/09/21 01:25:10;;;;;;;3.92;2.47;;;;;;;7.88;81.72;99236.00;1747016;82;21562;-71
2021/09/21 01:27:38;;;;;;;2.95;2.37;;;;;;;7.84;81.70;99238.31;1747564;82;21058;-71
2021/09/21 01:30:06;;;;;;;2.40;2.10;;;;;;;7.82;81.83;99233.13;1747465;82;22161;-70
2021/09/21 01:32:40;;;;;;;3.37;2.50;;;;;;;7.82;81.85;99229.57;1725547;82;21034;-71
2021/09/21 01:35:09;;;;;;;2.30;2.00;;;;;;;7.84;82.02;99233.64;1722014;82;20998;-71
2021/09/21 01:37:39;;;;;;;7.97;2.80;;;;;;;7.82;81.80;99232.31;1747347;82;21562;-72
2021/09/21 01:40:11;;;;;;;3.40;2.65;;;;;;;7.82;81.87;99236.42;1747360;82;21079;-70
2021/09/21 01:42:48;;;;;;;4.20;3.15;;;;;;;7.86;81.91;99236.08;1747038;82;21011;-71
2021/09/21 01:45:21;;;;;;;3.98;2.77;;;;;;;7.86;81.72;99233.33;1744468;82;21035;-70
2021/09/21 01:47:49;;;;;;;3.90;3.37;;;;;;;7.89;81.78;99232.70;1724246;82;21014;-72
2021/09/21 01:58:15;;;;;;;5.08;3.10;;;;;;;7.98;80.93;99239.65;1747546;82;20974;-70
2021/09/21 02:00:16;;;;;;;3.62;2.25;;;;;;;7.91;81.03;99242.82;1688828;84;21556;-70
2021/09/21 02:02:42;;;;;;;3.83;2.77;;;;;;;7.92;81.21;99240.31;1727679;82;21002;-70
2021/09/21 02:05:09;;;;;;;7.20;3.37;;;;;;;7.95;81.17;99239.69;1747242;82;21143;-71
2021/09/21 02:07:37;;;;;;;3.10;2.80;;;;;;;7.96;80.92;99235.84;1747297;82;21053;-70
2021/09/21 02:10:06;;;;;;;3.67;2.67;;;;;;;7.94;80.79;99239.45;1747084;80;20915;-72
2021/09/21 02:12:32;;;;;;;3.85;2.98;;;;;;;7.90;80.57;99245.30;1740982;82;20995;-71
2021/09/21 02:15:01;;;;;;;5.85;3.05;;;;;;;7.81;80.08;99242.49;1741485;82;21022;-70
2021/09/21 02:17:29;;;;;;;4.42;2.83;;;;;;;7.72;80.22;99250.63;1714960;81;21069;-71
2021/09/21 02:20:00;;;;;;;3.85;2.60;;;;;;;7.70;80.50;99252.86;1741665;82;21002;-72
2021/09/21 02:22:26;;;;;;;8.43;2.80;;;;;;;7.70;80.43;99250.67;1714688;82;21502;-71
2021/09/21 02:24:55;;;;;;;3.02;2.37;;;;;;;7.65;80.27;99250.23;1741731;82;21054;-71
2021/09/21 02:27:29;;;;;;;6.55;2.87;;;;;;;7.61;80.60;99246.49;1738792;82;21074;-71
2021/09/21 02:29:58;;;;;;;3.90;2.70;;;;;;;7.57;80.71;99248.21;1740454;82;21995;-71
2021/09/21 02:32:25;;;;;;;2.42;2.15;;;;;;;7.54;80.78;99249.07;1741828;82;21507;-70
2021/09/21 02:34:53;;;;;;;3.00;2.40;;;;;;;7.53;80.88;99247.46;1741605;82;21010;-70
2021/09/21 02:37:19;;;;;;;2.40;2.20;;;;;;;7.54;81.04;99249.65;1714615;82;21002;-69
2021/09/21 02:39:46;;;;;;;2.37;1.85;;;;;;;7.59;81.05;99248.73;1742143;82;21014;-71
2021/09/21 02:42:17;;;;;;;3.15;2.02;;;;;;;7.59;80.95;99249.52;1742102;82;21542;-68
2021/09/21 02:44:45;;;;;;;2.37;2.08;;;;;;;7.63;80.96;99251.09;1741262;82;21501;-71
2021/09/21 02:47:11;;;;;;;2.58;2.37;;;;;;;7.66;80.74;99254.03;1742011;82;20995;-70
2021/09/21 02:49:39;;;;;;;3.00;2.00;;;;;;;7.67;80.65;99249.38;1741871;82;21026;-70
2021/09/21 02:52:07;;;;;;;5.47;2.00;;;;;;;7.70;80.67;99252.86;1741925;82;21018;-69
2021/09/21 02:54:34;;;;;;;2.85;2.17;;;;;;;7.72;80.51;99256.12;1699075;82;21076;-71
2021/09/21 02:57:03;;;;;;;3.05;2.27;;;;;;;7.72;80.53;99249.81;1741464;82;21038;-72
2021/09/21 02:59:30;;;;;;;4.62;2.05;;;;;;;7.72;80.37;99256.12;1741114;82;21034;-71
2021/09/21 03:02:02;;;;;;;3.27;1.65;;;;;;;7.72;80.44;99256.12;1741718;82;21050;-70
2021/09/21 03:04:37;;;;;;;7.08;2.17;;;;;;;7.72;80.27;99252.55;1741926;82;21058;-72
2021/09/21 03:07:07;;;;;;;3.83;2.65;;;;;;;7.71;80.32;99257.22;1740996;81;21602;-71
2021/09/21 03:17:26;;;;;;;2.70;2.10;;;;;;;7.69;79.97;99259.48;1737991;82;20995;-71
2021/09/21 03:19:58;;;;;;;3.95;2.02;;;;;;;7.66;80.27;99255.41;1744263;82;21034;-70
2021/09/21 03:22:27;;;;;;;;;;;;;;;7.66;80.21;99260.89;1745075;82;21030;-71
2021/09/21 03:24:56;;;;;;;3.67;2.33;;;;;;;7.65;80.21;99263.94;1719722;82;20156;-71
2021/09/21 03:27:24;;;;;;;3.50;2.12;;;;;;;7.66;80.27;99261.44;1746198;81;21014;-71
2021/09/21 03:29:52;;;;;;;3.95;2.17;;;;;;;7.67;80.43;99261.71;1742404;82;21514;-71
2021/09/21 03:32:20;;;;;;;2.62;1.85;;;;;;;7.71;80.48;99261.91;1719669;82;21101;-71
2021/09/21 03:34:49;;;;;;;1.75;1.62;;;;;;;7.73;80.40;99264.59;1739511;82;20999;-72
2021/09/21 03:37:18;;;;;;;2.17;1.72;;;;;;;7.73;80.32;99267.91;1742591;82;21003;-70
2021/09/21 03:39:48;;;;;;;3.20;2.02;;;;;;;7.73;80.09;99269.28;1742536;82;20995;-71
2021/09/21 03:42:15;;;;;;;1.60;1.50;;;;;;;7.73;79.95;99265.95;1743151;82;21471;-70
2021/09/21 03:44:44;;;;;;;2.27;2.05;;;;;;;7.64;79.42;99263.70;1742358;82;21201;-70
2021/09/21 03:47:12;;;;;;;3.42;1.50;;;;;;;7.59;79.51;99273.41;1742349;82;21034;-71
2021/09/21 03:49:44;;;;;;;4.22;1.80;;;;;;;7.57;79.35;99261.37;1742594;82;21010;-71
2021/09/21 03:52:10;;;;;;;2.17;1.60;;;;;;;7.52;79.10;99259.53;1742871;82;21455;-71
2021/09/21 03:54:37;;;;;;;2.10;1.40;;;;;;;7.45;79.11;99261.06;1725206;82;20999;-70
2021/09/21 03:57:07;;;;;;;4.85;1.85;;;;;;;7.42;79.21;99259.76;1737345;82;21501;-71
2021/09/21 03:59:40;;;;;;;3.77;1.75;;;;;;;7.40;79.46;99257.30;1741181;82;21041;-72
2021/09/21 04:02:12;;;;;;;2.17;1.42;;;;;;;7.42;79.28;99255.65;1739863;81;21074;-71
2021/09/21 04:04:40;;;;;;;5.65;1.40;;;;;;;7.36;78.84;99254.11;1742173;82;21546;-72
2021/09/21 04:07:10;;;;;;;2.60;1.50;;;;;;;7.30;79.04;99258.90;1742540;82;21026;-71
2021/09/21 04:09:44;;;;;;;1.60;1.40;;;;;;;7.29;79.20;99260.00;1742600;82;20975;-72
2021/09/21 04:12:12;;;;;;;2.27;1.70;;;;;;;7.31;79.43;99256.41;1743419;81;20971;-71
2021/09/21 04:14:42;;;;;;;2.30;1.45;;;;;;;7.34;79.37;99257.70;1747073;82;21069;-72
2021/09/21 04:17:10;;;;;;;1.90;1.70;;;;;;;7.33;79.32;99261.02;1724861;82;21044;-70
2021/09/21 04:19:40;;;;;;;3.85;2.30;;;;;;;7.35;79.55;99267.57;1747564;82;22074;-72
2021/09/21 04:22:12;;;;;;;2.75;1.87;;;;;;;7.38;79.67;99264.22;1746644;82;21014;-72
2021/09/21 04:24:41;;;;;;;2.17;1.60;;;;;;;7.42;79.73;99266.03;1724182;82;20986;-71
2021/09/21 04:27:09;;;;;;;2.33;1.45;;;;;;;7.45;79.63;99268.74;1720942;82;21038;-71
2021/09/21 04:29:41;;;;;;;10.50;1.95;;;;;;;7.45;79.54;99264.63;1724236;82;21002;-70
2021/09/21 04:32:08;;;;;;;7.47;2.10;;;;;;;7.43;79.79;99268.23;1743643;82;21021;-71
2021/09/21 04:34:36;;;;;;;2.52;2.08;;;;;;;7.47;79.85;99264.32;1747647;82;21500;-71
2021/09/21 04:37:08;;;;;;;4.67;2.27;;;;;;;7.51;79.78;99264.77;1717612;82;20994;-70
2021/09/21 04:39:41;;;;;;;16.73;2.50;;;;;;;7.52;79.73;99260.11;1747296;82;21077;-71
2021/09/21 04:42:10;;;;;;;3.30;2.02;;;;;;;7.52;79.81;99262.27;1746817;82;21064;-70
2021/09/21 04:44:39;;;;;;;1.80;1.60;;;;;;;7.53;79.85;99257.60;1745991;82;21623;-70
2021/09/21 04:47:08;;;;;;;2.30;1.80;;;;;;;7.52;79.77;99252.67;1743606;82;20979;-69
2021/09/21 04:49:35;;;;;;;2.65;1.60;;;;;;;7.52;79.84;99259.53;1746655;82;21029;-69
2021/09/21 04:52:02;;;;;;;3.65;2.10;;;;;;;7.52;79.65;99257.36;1724235;82;21054;-70
2021/09/21 04:54:30;;;;;;;4.65;1.80;;;;;;;7.45;79.65;99261.06;1743996;82;20994;-69
2021/09/21 04:56:59;;;;;;;4.20;1.40;;;;;;;7.44;80.14;99262.98;1746545;82;21073;-70
2021/09/21 04:59:27;;;;;;;3.98;1.80;;;;;;;7.48;80.34;99262.64;1743220;82;21503;-71
2021/09/21 05:01:57;;;;;;;2.37;1.85;;;;;;;7.53;80.29;99268.58;1747395;80;21042;-70
2021/09/21 05:04:24;;;;;;;6.25;1.82;;;;;;;7.55;80.32;99262.23;1723210;82;21625;-70
2021/09/21 05:06:53;;;;;;;2.27;1.67;;;;;;;7.60;80.40;99258.02;1746062;80;21022;-71
2021/09/21 05:09:21;;;;;;;2.60;1.75;;;;;;;7.62;80.45;99258.52;1744005;82;21013;-71
2021/09/21 05:11:51;;;;;;;7.92;1.65;;;;;;;7.68;80.53;99260.58;1720878;82;21026;-70
2021/09/21 05:14:19;;;;;;;5.03;1.82;;;;;;;7.69;80.22;99264.97;1715164;82;21046;-71
2021/09/21 05:16:49;;;;;;;4.42;1.40;;;;;;;7.72;79.69;99265.72;1739485;82;21565;-71
2021/09/21 05:19:17;;;;;;;2.25;1.65;;;;;;;7.67;79.37;99265.27;1738154;82;20979;-70
2021/09/21 05:21:50;;;;;;;3.40;1.40;;;;;;;7.67;79.61;99265.27;1742000;82;21018;-71
2021/09/21 05:24:17;;;;;;;5.17;1.87;;;;;;;7.64;79.04;99267.23;1739845;82;21902;-70
2021/09/21 05:26:47;;;;;;;9.28;1.85;;;;;;;7.56;79.00;99266.59;1741175;82;21002;-72
2021/09/21 05:29:15;;;;;;;3.42;1.70;;;;;;;7.51;79.12;99270.25;1742222;81;21038;-70
2021/09/21 05:31:43;;;;;;;2.87;1.77;;;;;;;7.51;79.18;99271.63;1741781;81;21065;-71
2021/09/21 05:34:13;;;;;;;2.80;2.08;;;;;;;7.51;79.31;99268.05;1717372;81;21054;-71
2021/09/21 05:36:40;;;;;;;3.30;1.70;;;;;;;7.50;79.07;99261.78;1750388;81;21065;-70
2021/09/21 05:39:07;;;;;;;2.10;1.65;;;;;;;7.53;79.02;99265.28;1750479;80;21534;-70
2021/09/21 05:41:35;;;;;;;2.70;2.00;;;;;;;7.59;79.18;99265.17;1749895;81;21038;-71
2021/09/21 05:44:03;;;;;;;2.50;2.00;;;;;;;7.65;79.25;99274.91;1750915;81;20998;-71
2021/09/21 05:46:34;;;;;;;3.58;1.72;;;;;;;7.67;78.81;99258.97;1743391;81;21522;-71
2021/09/21 05:49:00;;;;;;;4.70;1.92;;;;;;;7.66;78.45;99261.44;1719283;81;21125;-71
2021/09/21 05:51:31;;;;;;;3.45;1.72;;;;;;;7.64;78.59;99260.95;1745957;81;21002;-72
2021/09/21 05:54:03;;;;;;;4.35;1.70;;;;;;;7.64;78.25;99265.86;1746004;81;21002;-72
2021/09/21 05:56:30;;;;;;;3.62;1.95;;;;;;;7.60;78.08;99266.78;1716441;81;21105;-71
2021/09/21 05:59:02;;;;;;;6.03;2.95;;;;;;;7.61;78.47;99264.31;1746706;81;21066;-72
2021/09/21 06:01:32;;;;;;;2.72;1.77;;;;;;;7.66;78.64;99269.66;1739630;81;21728;-71
2021/09/21 06:04:04;;;;;;;5.85;1.50;;;;;;;7.71;78.43;99267.40;1741680;81;22273;-72
2021/09/21 06:06:33;;;;;;;3.02;1.55;;;;;;;7.73;78.23;99263.80;1741127;81;21007;-72
2021/09/21 06:09:00;;;;;;;6.55;1.85;;;;;;;7.73;78.13;99261.05;1717456;82;20995;-71
2021/09/21 06:11:32;;;;;;;4.10;1.62;;;;;;;7.69;78.11;99264.97;1744629;81;21010;-70
2021/09/21 06:13:59;;;;;;;2.98;1.60;;;;;;;7.65;78.43;99266.13;1748499;80;21124;-70
2021/09/21 06:16:27;;;;;;;3.98;1.95;;;;;;;7.64;78.64;99269.19;1745808;82;21053;-71
2021/09/21 06:18:57;;;;;;;3.27;2.02;;;;;;;7.61;78.77;99267.06;1743413;82;21435;-71
2021/09/21 06:21:27;;;;;;;4.92;2.10;;;;;;;7.55;78.83;99264.42;1717717;82;21054;-71
2021/09/21 06:23:55;;;;;;;8.53;2.65;;;;;;;7.48;79.00;99269.50;1708255;82;21042;-72
2021/09/21 06:26:27;;;;;;;2.33;1.77;;;;;;;7.48;79.32;99267.30;1723021;82;21302;-72
2021/09/21 06:28:55;;;;;;;2.83;1.55;;;;;;;7.50;79.42;99273.30;1747469;82;21046;-71
2021/09/21 06:31:25;;;;;;;5.55;3.30;;;;;;;7.53;79.65;99274.88;1749180;82;21563;-71
2021/09/21 06:33:57;;;;;;;6.67;2.50;;;;;;;7.56;79.83;99270.70;1743487;82;21022;-71
2021/09/21 06:36:25;;;;;;;3.10;1.70;;;;;;;7.62;79.98;99275.53;1747377;81;21002;-70
2021/09/21 06:38:52;;;;;;;2.98;1.95;;;;;;;7.67;80.08;99274.88;1747685;82;21164;-72
2021/09/21 06:41:18;;;;;;;4.20;1.50;;;;;;;7.71;79.87;99270.14;1747109;82;21030;-71
2021/09/21 06:43:45;;;;;;;6.35;2.05;;;;;;;7.69;79.53;99267.70;1747867;82;21092;-71
2021/09/21 06:46:12;;;;;;;3.17;1.77;;;;;;;7.67;79.56;99264.45;1724342;82;21483;-71
2021/09/21 06:48:39;;;;;;;2.58;1.70;;;;;;;7.70;79.69;99273.44;1751348;80;21010;-71
2021/09/21 06:51:07;;;;;;;3.37;1.80;;;;;;;7.69;79.16;99271.82;1772602;80;21627;-71
2021/09/21 06:53:34;;;;;;;1.37;1.20;;;;;;;7.63;79.34;99276.59;1778294;80;20999;-71
2021/09/21 06:56:10;;;;;;;2.02;1.50;;;;;;;7.71;79.77;99275.63;1768350;80;20998;-72
2021/09/21 06:58:44;;;;;;;4.05;1.30;;;;;;;7.80;79.09;99276.52;1749780;80;20986;-72
2021/09/21 07:01:14;;;;;;;2.17;1.92;;;;;;;7.83;78.55;99280.59;1747137;82;21025;-72
2021/09/21 07:03:44;;;;;;;3.67;1.87;;;;;;;7.79;78.22;99283.95;1743745;82;20958;-70
2021/09/21 07:06:16;;;;;;;3.55;1.92;;;;;;;7.84;78.68;99291.80;1747573;82;21268;-72
2021/09/21 07:08:43;;;;;;;2.72;1.47;;;;;;;7.90;78.85;99287.27;1739856;82;21042;-73
2021/09/21 07:11:14;;;;;;;3.40;1.40;;;;;;;7.96;78.02;99289.34;1747131;82;21041;-71
2021/09/21 07:13:47;;;;;;;1.67;1.45;;;;;;;7.93;77.43;99292.72;1740657;82;21113;-72
2021/09/21 07:16:16;;;;;;;4.35;1.37;;;;;;;7.88;77.20;99290.88;1739011;82;21176;-74
2021/09/21 07:18:44;;;;;;;1.77;1.30;;;;;;;7.85;76.98;99295.61;1739706;82;21047;-71
2021/09/21 07:21:11;;;;;;;3.95;1.45;;;;;;;7.79;76.76;99298.21;1741493;82;21054;-71
2021/09/21 07:23:49;;;;;;;4.25;1.87;;;;;;;7.79;76.97;99304.52;1740057;82;20999;-70
2021/09/21 07:26:15;;;;;;;3.47;1.72;;;;;;;7.82;77.16;99300.89;1740194;82;21049;-71
2021/09/21 07:28:43;;;;;;;2.95;1.40;;;;;;;7.86;77.40;99299.17;1741085;82;21077;-70
2021/09/21 07:31:11;;;;;;;2.55;1.37;;;;;;;7.90;77.30;99303.73;1740168;82;21034;-71
2021/09/21 07:33:41;;;;;;;1.80;1.27;;;;;;;7.96;77.34;99304.98;1714326;82;21014;-70
2021/09/21 07:36:10;;;;;;;4.03;1.12;;;;;;;7.97;76.56;99303.86;1741424;82;21083;-72
2021/09/21 07:38:42;;;;;;;1.87;1.35;;;;;;;7.99;76.53;99303.81;1715243;82;21510;-73
2021/09/21 07:41:11;;;;;;;2.33;1.37;;;;;;;7.98;76.33;99305.50;1714182;82;21815;-71
2021/09/21 07:43:40;;;;;;;1.77;1.30;;;;;;;7.94;76.08;99306.67;1741324;82;21053;-71
2021/09/21 07:46:06;;;;;;;1.85;1.37;;;;;;;7.90;75.58;99309.22;1741671;82;20995;-71
2021/09/21 07:48:36;;;;;;;1.60;1.30;;;;;;;7.86;75.90;99308.77;1740394;82;21121;-71
2021/09/21 07:51:04;;;;;;;2.10;1.00;;;;;;;7.85;75.92;99310.69;1741315;82;21065;-71
2021/09/21 07:53:35;;;;;;;5.35;1.10;;;;;;;7.77;75.82;99304.02;1741465;82;21660;-71
2021/09/21 07:56:05;;;;;;;2.85;1.37;;;;;;;7.74;75.97;99305.17;1708280;82;21034;-71
2021/09/21 07:58:31;;;;;;;0.90;0.90;;;;;;;7.75;76.27;99310.35;1715522;82;21545;-71
2021/09/21 08:01:04;;;;;;;2.90;1.70;;;;;;;7.77;75.91;99303.19;1741476;82;21062;-69
2021/09/21 08:03:30;;;;;;;1.45;1.12;;;;;;;7.72;75.50;99306.03;1741256;82;20999;-70
2021/09/21 08:05:58;;;;;;;5.65;1.90;;;;;;;7.61;75.47;99308.19;1741303;82;21947;-70
2021/09/21 08:08:25;;;;;;;6.78;1.67;;;;;;;7.57;76.01;99314.02;1741266;82;21038;-71
2021/09/21 08:10:54;;;;;;;3.77;1.80;;;;;;;7.60;76.33;99308.74;1704597;82;21038;-71
2021/09/21 08:13:21;;;;;;;2.58;1.40;;;;;;;7.66;76.30;99310.80;1741388;80;21042;-70
2021/09/21 08:15:50;;;;;;;2.27;1.20;;;;;;;7.68;76.26;99309.95;1740455;81;21070;-69
2021/09/21 08:18:17;;;;;;;2.52;1.10;;;;;;;7.71;76.23;99309.91;1741372;82;21133;-69
2021/09/21 08:20:46;;;;;;;8.80;1.75;;;;;;;7.70;75.99;99304.97;1741159;81;21049;-71
2021/09/21 08:23:12;;;;;;;2.27;1.30;;;;;;;7.73;76.35;99311.21;1740864;82;21547;-71
2021/09/21 08:25:43;;;;;;;3.22;1.30;;;;;;;7.75;76.57;99308.98;1741291;82;21030;-71
2021/09/21 08:28:12;;;;;;;1.62;1.20;;;;;;;7.82;76.38;99309.94;1741427;82;21007;-70
2021/09/21 08:30:39;;;;;;;1.57;1.05;;;;;;;7.85;76.39;99307.95;1741491;82;22042;-71
2021/09/21 08:33:11;;;;;;;1.80;1.20;;;;;;;7.90;76.23;99311.95;1741389;82;21109;-70
2021/09/21 08:35:41;;;;;;;1.85;1.25;;;;;;;7.92;76.08;99306.16;1741280;82;22067;-70
2021/09/21 08:38:09;;;;;;;1.82;1.30;;;;;;;7.94;75.70;99303.11;1714685;82;21026;-72
2021/09/21 08:40:40;;;;;;;2.05;1.20;;;;;;;7.93;75.88;99309.17;1741351;82;21117;-72
2021/09/21 08:43:07;;;;;;;1.42;1.17;;;;;;;7.95;75.57;99308.28;1741123;82;22403;-73
2021/09/21 08:45:40;;;;;;;2.33;1.43;;;;;;;7.93;75.72;99310.55;1718635;82;21053;-72
2021/09/21 08:48:08;;;;;;;2.25;1.00;;;;;;;7.95;75.46;99306.13;1714321;82;21061;-70
2021/09/21 08:50:36;;;;;;;2.62;1.30;;;;;;;7.97;75.55;99307.97;1737917;82;21118;-70
2021/09/21 08:53:03;;;;;;;2.37;1.42;;;;;;;7.97;75.56;99309.34;1741809;82;21507;-71
2021/09/21 08:55:30;;;;;;;2.08;0.93;;;;;;;8.00;75.65;99307.38;1741241;82;21126;-71
2021/09/21 08:57:59;;;;;;;3.10;1.72;;;;;;;8.02;75.56;99310.61;1741252;82;21533;-70
2021/09/21 09:00:30;;;;;;;3.65;2.00;;;;;;;8.03;75.29;99312.25;1741386;82;21022;-71
2021/09/21 09:03:14;;;;;;;5.97;1.57;;;;;;;8.07;75.47;99312.45;1712771;82;21003;-70
2021/09/21 09:05:54;;;;;;;3.37;1.20;;;;;;;8.10;75.66;99315.36;1741336;82;21057;-70
2021/09/21 09:08:33;;;;;;;2.92;1.50;;;;;;;8.17;75.24;99319.09;1740240;82;21518;-70
2021/09/21 09:11:22;;;;;;;2.92;1.25;;;;;;;8.19;75.14;99322.31;1739793;82;21554;-71
2021/09/21 09:13:53;;;;;;;4.53;2.33;;;;;;;8.17;74.71;99324.58;1745352;80;21097;-71
2021/09/21 09:16:33;;;;;;;3.37;2.00;;;;;;;8.12;74.34;99326.06;1746842;82;21038;-71
2021/09/21 09:19:06;;;;;;;1.65;1.42;;;;;;;8.11;74.61;99320.30;1714949;82;21045;-69
2021/09/21 09:21:37;;;;;;;2.95;1.02;;;;;;;8.11;74.52;99326.61;1746798;82;21037;-70
2021/09/21 09:24:06;;;;;;;1.20;1.10;;;;;;;8.12;74.82;99330.97;1745453;82;21124;-70
2021/09/21 09:26:38;;;;;;;3.62;1.50;;;;;;;8.12;74.76;99331.55;1746744;82;21537;-70
2021/09/21 09:29:08;;;;;;;3.45;1.80;;;;;;;8.11;74.83;99333.47;1709131;82;22180;-72
2021/09/21 09:31:35;;;;;;;3.90;1.92;;;;;;;8.15;75.22;99336.41;1746814;82;21010;-71
2021/09/21 09:34:21;;;;;;;6.30;1.07;;;;;;;8.21;75.08;99339.29;1744476;82;21816;-72
2021/09/21 09:36:53;;;;;;;2.98;1.50;;;;;;;8.25;74.64;99336.20;1746965;82;21030;-71
2021/09/21 09:39:29;;;;;;;2.75;1.60;;;;;;;8.27;74.60;99329.81;1712309;82;20974;-72
2021/09/21 09:42:01;;;;;;;3.55;2.00;;;;;;;8.27;73.91;99331.19;1745616;82;21018;-71
2021/09/21 09:44:32;;;;;;;4.33;1.60;;;;;;;8.23;73.81;99330.20;1723380;82;21081;-73
2021/09/21 09:47:06;;;;;;;2.72;1.70;;;;;;;8.20;74.18;99331.37;1746753;82;21511;-72
2021/09/21 09:49:40;;;;;;;1.30;1.00;;;;;;;8.19;74.21;99337.98;1724353;82;21034;-70
2021/09/21 09:52:16;;;;;;;5.40;1.57;;;;;;;8.13;73.81;99330.42;1745476;82;21045;-70
2021/09/21 09:54:46;;;;;;;2.72;1.30;;;;;;;8.11;73.96;99339.52;1746133;82;21038;-70
2021/09/21 09:57:14;;;;;;;2.20;1.30;;;;;;;8.09;73.90;99339.00;1747521;82;21557;-71
2021/09/21 09:59:56;;;;;;;3.55;1.40;;;;;;;8.11;74.28;99336.77;1746693;82;21938;-72
2021/09/21 10:02:25;;;;;;;1.85;1.40;;;;;;;8.18;74.42;99341.84;1747340;82;21480;-71
2021/09/21 10:04:57;;;;;;;1.95;1.40;;;;;;;8.29;74.35;99343.23;1743430;82;20998;-69
2021/09/21 10:07:28;;;;;;;1.45;1.35;;;;;;;8.37;74.16;99342.52;1723905;82;21010;-71
2021/09/21 10:09:57;;;;;;;2.02;1.27;;;;;;;8.42;73.69;99338.84;1724280;82;21131;-72
2021/09/21 10:12:23;;;;;;;2.47;1.10;;;;;;;8.46;73.64;99337.08;1744944;81;21128;-71
2021/09/21 10:14:52;;;;;;;1.90;1.00;;;;;;;8.54;73.42;99334.17;1746921;82;21025;-72
2021/09/21 10:17:33;;;;;;;2.27;0.95;;;;;;;8.61;73.40;99334.59;1723689;82;21006;-72
2021/09/21 10:19:57;;;;;;;1.55;1.07;;;;;;;8.63;72.54;99338.39;1746272;82;21025;-71
2021/09/21 10:22:38;;;;;;;2.27;1.30;;;;;;;8.59;72.63;99342.88;1744597;82;21081;-70
2021/09/21 10:25:16;;;;;;;2.42;1.50;;;;;;;8.59;72.91;99340.13;1741498;82;21579;-72
2021/09/21 10:27:46;;;;;;;5.17;1.92;;;;;;;8.62;72.87;99337.57;1746344;82;20910;-71
2021/09/21 10:30:19;;;;;;;8.58;2.00;;;;;;;8.63;72.28;99335.64;1699257;82;21054;-72
2021/09/21 10:32:50;;;;;;;6.25;2.05;;;;;;;8.58;72.17;99350.87;1724789;82;21081;-70
2021/09/21 10:35:23;;;;;;;4.45;1.90;;;;;;;8.53;72.34;99347.08;1724221;82;21037;-70
2021/09/21 10:38:11;;;;;;;2.60;1.52;;;;;;;8.50;72.33;99351.82;1747171;82;21076;-69
2021/09/21 10:40:43;;;;;;;4.72;1.77;;;;;;;8.48;72.68;99347.75;1743599;82;21448;-72
2021/09/21 10:43:31;;;;;;;1.92;1.30;;;;;;;8.48;72.91;99349.94;1747332;82;21037;-72
2021/09/21 10:46:16;;;;;;;2.40;1.62;;;;;;;8.41;72.07;99348.17;1740113;82;21017;-68
2021/09/21 10:48:48;;;;;;;2.92;1.57;;;;;;;8.29;72.41;99351.46;1746040;82;21026;-68
2021/09/21 10:51:16;;;;;;;2.50;1.82;;;;;;;8.26;72.85;99352.91;1745747;82;21529;-70
2021/09/21 10:53:50;;;;;;;2.52;1.80;;;;;;;8.27;73.25;99357.27;1745662;80;21015;-70
2021/09/21 10:56:18;;;;;;;;;;;;;;;8.30;73.66;99358.59;1748030;82;20954;-70
2021/09/21 10:58:54;;;;;;;5.75;1.42;;;;;;;8.32;73.43;99355.54;1698784;82;20198;-71
2021/09/21 11:01:23;;;;;;;2.30;1.10;;;;;;;8.32;73.22;99361.03;1746440;82;21018;-70
2021/09/21 11:03:53;;;;;;;1.65;0.93;;;;;;;8.26;72.81;99361.69;1743823;82;21018;-71
2021/09/21 11:06:21;;;;;;;1.42;1.05;;;;;;;8.20;72.54;99367.05;1746732;82;21018;-69
2021/09/21 11:08:48;;;;;;;2.02;0.90;;;;;;;8.18;73.00;99367.91;1747156;82;20959;-70
2021/09/21 11:11:21;;;;;;;1.52;1.00;;;;;;;8.16;72.85;99369.05;1747389;82;21007;-69
2021/09/21 11:13:50;;;;;;;3.33;1.45;;;;;;;8.06;72.58;99362.95;1746750;80;21486;-71
2021/09/21 11:16:20;;;;;;;2.95;1.25;;;;;;;8.00;73.30;99363.63;1747105;82;20984;-69
2021/09/21 11:18:59;;;;;;;4.12;1.20;;;;;;;8.03;73.77;99371.25;1701350;82;20986;-69
2021/09/21 11:21:27;;;;;;;2.12;1.10;;;;;;;8.12;74.08;99361.73;1745610;82;20986;-69
2021/09/21 11:23:58;;;;;;;2.20;1.45;;;;;;;8.15;73.58;99367.98;1747184;82;21053;-69
2021/09/21 11:26:25;;;;;;;2.37;1.42;;;;;;;8.14;74.01;99371.27;1747296;82;21534;-70
2021/09/21 11:28:57;;;;;;;7.85;1.07;;;;;;;8.18;74.19;99373.40;1747126;82;21585;-72
2021/09/21 11:31:30;;;;;;;1.40;1.07;;;;;;;8.18;73.75;99370.11;1746903;82;20950;-69
2021/09/21 11:33:59;;;;;;;6.45;1.30;;;;;;;8.12;74.02;99370.77;1743672;82;20991;-70
2021/09/21 11:36:30;;;;;;;2.27;1.42;;;;;;;8.13;74.13;99374.33;1747158;82;21058;-71
2021/09/21 11:39:01;;;;;;;2.08;1.47;;;;;;;8.12;73.95;99373.51;1747158;82;20995;-70
2021/09/21 11:41:27;;;;;;;3.17;1.80;;;;;;;8.11;74.34;99378.75;1745963;82;21018;-70
2021/09/21 11:43:55;;;;;;;2.10;1.05;;;;;;;8.11;74.25;99377.94;1747108;82;21033;-72
2021/09/21 11:46:30;;;;;;;4.55;1.40;;;;;;;8.14;74.06;99375.94;1746207;82;21003;-71
2021/09/21 11:48:59;;;;;;;1.22;0.80;;;;;;;8.16;73.80;99380.57;1747222;82;21006;-71
2021/09/21 11:51:30;;;;;;;1.65;1.10;;;;;;;8.12;73.57;99380.37;1746973;81;20986;-72
2021/09/21 11:53:59;;;;;;;1.92;1.27;;;;;;;8.13;73.76;99382.56;1746974;82;21065;-69
2021/09/21 11:56:28;;;;;;;2.40;1.20;;;;;;;8.11;73.84;99386.98;1747157;82;21065;-70
2021/09/21 11:59:00;;;;;;;3.77;1.62;;;;;;;8.13;73.68;99390.80;1747311;82;21474;-70
2021/09/21 12:01:33;;;;;;;3.22;1.32;;;;;;;8.11;73.93;99393.85;1724487;82;21002;-71
2021/09/21 12:04:02;;;;;;;4.08;1.57;;;;;;;8.12;74.00;99388.60;1744348;82;21066;-71
2021/09/21 12:06:35;;;;;;;3.27;1.30;;;;;;;8.10;73.42;99394.95;1724772;82;21513;-70
2021/09/21 12:09:05;;;;;;;3.80;1.80;;;;;;;8.02;73.55;99401.16;1747525;82;21011;-70